Sy Augusta — PD5307 — position and weather

sailwx.info

Track history (hours):
 
Tides and Currents Weather Stations Pressure Air Temp Water Temp Dewpoint Dewpoint Depression Visibility Wind Speed Wind Dir Waves Ship Positions

Sy Augusta

Last reported at 2018-Jan-03 19:07 UTC. Time now 2018-Feb-24 00:41 UTC.
Position N 37°07' W 008°32'.
Warning: this ship's position is 51 days out of date.

Length 14 m.

Type: Pleasure craft. MMSI: 244030920.

Date/timePositionNaut miles runAvg speedWind from/ knotsBaromVisibWave heightAir tempDewpointWater temp
2018-Jan-03 19:07N 37°07' W 008°32'0 0.0
2018-Jan-03 18:55N 37°07' W 008°32'0 0.0
2018-Jan-03 18:30N 37°07' W 008°32'0 0.0
2018-Jan-03 17:54N 37°07' W 008°32'0 0.0
2018-Jan-03 17:30N 37°07' W 008°32'0 0.0
2018-Jan-03 17:00N 37°07' W 008°32'0 0.0
2018-Jan-03 16:25N 37°07' W 008°32'0 0.0
2018-Jan-03 15:54N 37°07' W 008°32'0 0.0
2018-Jan-03 15:27N 37°07' W 008°32'0 0.0
2018-Jan-03 15:01N 37°07' W 008°32'0 0.0
2018-Jan-03 14:30N 37°07' W 008°32'0 0.0
2018-Jan-03 13:57N 37°07' W 008°32'0 0.0
2018-Jan-03 13:28N 37°07' W 008°32'0 0.0
2018-Jan-03 12:58N 37°07' W 008°32'0 0.0
2018-Jan-03 12:30N 37°07' W 008°32'0 0.0
2018-Jan-03 09:22N 37°07' W 008°32'0 0.0
2018-Jan-02 21:06N 37°07' W 008°32'0 0.1
2018-Jan-02 21:00N 37°07' W 008°32'0 0.0
2018-Jan-02 20:30N 37°07' W 008°32'0 0.0
2018-Jan-02 19:54N 37°07' W 008°32'0 0.0
2018-Jan-02 19:27N 37°07' W 008°32'0 0.0
2018-Jan-02 18:54N 37°07' W 008°32'0 0.0
2018-Jan-02 18:30N 37°07' W 008°32'0 0.0
2018-Jan-02 18:00N 37°07' W 008°32'0 0.9
2018-Jan-02 17:30N 37°07' W 008°32'2 4.3
2018-Jan-02 17:00N 37°06' W 008°34'2 2.5
2018-Jan-02 16:11N 37°07' W 008°37'1 0.7
2018-Jan-02 15:00N 37°08' W 008°37'0 0.0
2018-Jan-02 14:20N 37°08' W 008°37'0 0.0
2018-Jan-02 13:53N 37°08' W 008°37'0 0.0
2018-Jan-02 13:23N 37°08' W 008°37'0 0.0
2018-Jan-02 12:31N 37°08' W 008°37'0 0.5
2018-Jan-02 12:25N 37°08' W 008°37'1 2.1
2018-Jan-02 11:57N 37°07' W 008°36'2 4.8
2018-Jan-02 11:30N 37°07' W 008°34'2 3.4
2018-Jan-02 11:00N 37°07' W 008°32'0 0.0
2017-Dec-31 16:50N 37°07' W 008°32'0 0.0
2017-Dec-31 16:26N 37°07' W 008°32'0 0.0
2017-Dec-31 15:59N 37°07' W 008°32'0 0.0
2017-Dec-31 15:29N 37°07' W 008°32'0 0.0
2017-Dec-31 14:50N 37°07' W 008°32'0 0.0
2017-Dec-31 14:27N 37°07' W 008°32'8 2.4
2017-Dec-31 11:10N 37°04' W 008°23'2 5.8
2017-Dec-31 10:53N 37°04' W 008°21'2 5.3
2017-Dec-31 10:26N 37°04' W 008°18'  
2017-Dec-25 12:04N 37°02' W 008°16'1 6.2
2017-Dec-25 11:59N 37°03' W 008°17'3 6.3
2017-Dec-25 11:30N 37°04' W 008°20'3 6.3
2017-Dec-25 11:00N 37°04' W 008°24'3 6.2
2017-Dec-25 10:29N 37°05' W 008°28'3 6.2
2017-Dec-25 09:58N 37°06' W 008°32'1 0.0
2017-Dec-24 19:07N 37°07' W 008°32'  
Track history (hours):
 
Tides and Currents Weather Stations Pressure Air Temp Water Temp Dewpoint Dewpoint Depression Visibility Wind Speed Wind Dir Waves Ship Positions

Sy Augusta

Last reported at 2018-Jan-03 19:07 UTC. Time now 2018-Feb-24 00:41 UTC.
Position N 37°07' W 008°32'.
Warning: this ship's position is 51 days out of date.

Length 14 m.

Type: Pleasure craft. MMSI: 244030920.

Date/timePositionNaut miles runAvg speedWind from/ knotsBaromVisibWave heightAir tempDewpointWater temp
2018-Jan-03 19:07N 37°07' W 008°32'0 0.0
2018-Jan-03 18:55N 37°07' W 008°32'0 0.0
2018-Jan-03 18:30N 37°07' W 008°32'0 0.0
2018-Jan-03 17:54N 37°07' W 008°32'0 0.0
2018-Jan-03 17:30N 37°07' W 008°32'0 0.0
2018-Jan-03 17:00N 37°07' W 008°32'0 0.0
2018-Jan-03 16:25N 37°07' W 008°32'0 0.0
2018-Jan-03 15:54N 37°07' W 008°32'0 0.0
2018-Jan-03 15:27N 37°07' W 008°32'0 0.0
2018-Jan-03 15:01N 37°07' W 008°32'0 0.0
2018-Jan-03 14:30N 37°07' W 008°32'0 0.0
2018-Jan-03 13:57N 37°07' W 008°32'0 0.0
2018-Jan-03 13:28N 37°07' W 008°32'0 0.0
2018-Jan-03 12:58N 37°07' W 008°32'0 0.0
2018-Jan-03 12:30N 37°07' W 008°32'0 0.0
2018-Jan-03 09:22N 37°07' W 008°32'0 0.0
2018-Jan-02 21:06N 37°07' W 008°32'0 0.1
2018-Jan-02 21:00N 37°07' W 008°32'0 0.0
2018-Jan-02 20:30N 37°07' W 008°32'0 0.0
2018-Jan-02 19:54N 37°07' W 008°32'0 0.0
2018-Jan-02 19:27N 37°07' W 008°32'0 0.0
2018-Jan-02 18:54N 37°07' W 008°32'0 0.0
2018-Jan-02 18:30N 37°07' W 008°32'0 0.0
2018-Jan-02 18:00N 37°07' W 008°32'0 0.9
2018-Jan-02 17:30N 37°07' W 008°32'2 4.3
2018-Jan-02 17:00N 37°06' W 008°34'2 2.5
2018-Jan-02 16:11N 37°07' W 008°37'1 0.7
2018-Jan-02 15:00N 37°08' W 008°37'0 0.0
2018-Jan-02 14:20N 37°08' W 008°37'0 0.0
2018-Jan-02 13:53N 37°08' W 008°37'0 0.0
2018-Jan-02 13:23N 37°08' W 008°37'0 0.0
2018-Jan-02 12:31N 37°08' W 008°37'0 0.5
2018-Jan-02 12:25N 37°08' W 008°37'1 2.1
2018-Jan-02 11:57N 37°07' W 008°36'2 4.8
2018-Jan-02 11:30N 37°07' W 008°34'2 3.4
2018-Jan-02 11:00N 37°07' W 008°32'0 0.0
2017-Dec-31 16:50N 37°07' W 008°32'0 0.0
2017-Dec-31 16:26N 37°07' W 008°32'0 0.0
2017-Dec-31 15:59N 37°07' W 008°32'0 0.0
2017-Dec-31 15:29N 37°07' W 008°32'0 0.0
2017-Dec-31 14:50N 37°07' W 008°32'0 0.0
2017-Dec-31 14:27N 37°07' W 008°32'8 2.4
2017-Dec-31 11:10N 37°04' W 008°23'2 5.8
2017-Dec-31 10:53N 37°04' W 008°21'2 5.3
2017-Dec-31 10:26N 37°04' W 008°18'  
2017-Dec-25 12:04N 37°02' W 008°16'1 6.2
2017-Dec-25 11:59N 37°03' W 008°17'3 6.3
2017-Dec-25 11:30N 37°04' W 008°20'3 6.3
2017-Dec-25 11:00N 37°04' W 008°24'3 6.2
2017-Dec-25 10:29N 37°05' W 008°28'3 6.2
2017-Dec-25 09:58N 37°06' W 008°32'1 0.0
2017-Dec-24 19:07N 37°07' W 008°32'  

Dump ship's entire track history